sensor_id;sensor_type;location;lat;lon;timestamp;P1;durP1;ratioP1;P2;durP2;ratioP2
23624;SDS011;11989;47.872;12.014;2023-04-03T00:02:18;10.65;;;8.23;;
23624;SDS011;11989;47.872;12.014;2023-04-03T00:04:44;9.52;;;7.47;;
23624;SDS011;11989;47.872;12.014;2023-04-03T00:07:10;10.23;;;8.70;;
23624;SDS011;11989;47.872;12.014;2023-04-03T00:09:37;11.45;;;8.43;;
23624;SDS011;11989;47.872;12.014;2023-04-03T00:12:03;10.20;;;8.63;;
23624;SDS011;11989;47.872;12.014;2023-04-03T00:14:29;11.80;;;8.02;;
23624;SDS011;11989;47.872;12.014;2023-04-03T00:16:56;11.00;;;9.02;;
23624;SDS011;11989;47.872;12.014;2023-04-03T00:19:22;13.05;;;8.07;;
23624;SDS011;11989;47.872;12.014;2023-04-03T00:21:48;10.30;;;8.30;;
23624;SDS011;11989;47.872;12.014;2023-04-03T00:24:14;10.80;;;8.80;;
23624;SDS011;11989;47.872;12.014;2023-04-03T00:26:40;12.85;;;9.10;;
23624;SDS011;11989;47.872;12.014;2023-04-03T00:29:06;12.02;;;9.13;;
23624;SDS011;11989;47.872;12.014;2023-04-03T00:31:32;9.68;;;7.90;;
23624;SDS011;11989;47.872;12.014;2023-04-03T00:33:58;10.57;;;7.78;;
23624;SDS011;11989;47.872;12.014;2023-04-03T00:36:24;11.60;;;9.13;;
23624;SDS011;11989;47.872;12.014;2023-04-03T00:38:50;12.80;;;9.23;;
23624;SDS011;11989;47.872;12.014;2023-04-03T00:41:16;11.05;;;8.77;;
23624;SDS011;11989;47.872;12.014;2023-04-03T00:43:42;10.23;;;8.13;;
23624;SDS011;11989;47.872;12.014;2023-04-03T00:46:08;10.60;;;8.60;;
23624;SDS011;11989;47.872;12.014;2023-04-03T00:48:36;12.05;;;9.32;;
23624;SDS011;11989;47.872;12.014;2023-04-03T00:51:04;12.73;;;8.90;;
23624;SDS011;11989;47.872;12.014;2023-04-03T00:54:13;11.98;;;9.07;;
23624;SDS011;11989;47.872;12.014;2023-04-03T00:56:21;10.25;;;8.85;;
23624;SDS011;11989;47.872;12.014;2023-04-03T00:58:53;11.00;;;9.00;;
23624;SDS011;11989;47.872;12.014;2023-04-03T01:01:22;12.40;;;8.65;;
23624;SDS011;11989;47.872;12.014;2023-04-03T01:03:49;12.07;;;9.50;;
23624;SDS011;11989;47.872;12.014;2023-04-03T01:06:16;11.60;;;9.15;;
23624;SDS011;11989;47.872;12.014;2023-04-03T01:08:42;10.65;;;8.88;;
23624;SDS011;11989;47.872;12.014;2023-04-03T01:11:09;12.70;;;8.88;;
23624;SDS011;11989;47.872;12.014;2023-04-03T01:13:35;10.45;;;8.70;;
23624;SDS011;11989;47.872;12.014;2023-04-03T01:16:03;10.68;;;8.68;;
23624;SDS011;11989;47.872;12.014;2023-04-03T01:18:29;11.10;;;8.48;;
23624;SDS011;11989;47.872;12.014;2023-04-03T01:26:10;10.57;;;8.43;;
23624;SDS011;11989;47.872;12.014;2023-04-03T01:28:37;13.88;;;8.18;;
23624;SDS011;11989;47.872;12.014;2023-04-03T01:33:39;9.60;;;7.45;;
23624;SDS011;11989;47.872;12.014;2023-04-03T01:36:06;12.63;;;8.23;;
23624;SDS011;11989;47.872;12.014;2023-04-03T01:38:32;11.13;;;7.50;;
23624;SDS011;11989;47.872;12.014;2023-04-03T01:40:58;9.88;;;7.57;;
23624;SDS011;11989;47.872;12.014;2023-04-03T01:43:25;10.20;;;7.60;;
23624;SDS011;11989;47.872;12.014;2023-04-03T01:45:51;9.50;;;7.68;;
23624;SDS011;11989;47.872;12.014;2023-04-03T01:48:19;10.77;;;8.23;;
23624;SDS011;11989;47.872;12.014;2023-04-03T01:50:45;10.75;;;7.72;;
23624;SDS011;11989;47.872;12.014;2023-04-03T01:53:11;10.82;;;7.75;;
23624;SDS011;11989;47.872;12.014;2023-04-03T01:55:38;13.10;;;8.80;;
23624;SDS011;11989;47.872;12.014;2023-04-03T01:58:04;10.27;;;7.80;;
23624;SDS011;11989;47.872;12.014;2023-04-03T02:00:30;10.20;;;7.75;;
23624;SDS011;11989;47.872;12.014;2023-04-03T02:02:56;10.68;;;8.52;;
23624;SDS011;11989;47.872;12.014;2023-04-03T02:05:22;9.75;;;7.57;;
23624;SDS011;11989;47.872;12.014;2023-04-03T02:07:48;10.07;;;7.65;;
23624;SDS011;11989;47.872;12.014;2023-04-03T02:10:14;10.43;;;7.70;;
23624;SDS011;11989;47.872;12.014;2023-04-03T02:12:40;9.93;;;6.97;;
23624;SDS011;11989;47.872;12.014;2023-04-03T02:15:06;11.60;;;7.82;;
23624;SDS011;11989;47.872;12.014;2023-04-03T02:17:32;8.98;;;7.43;;
23624;SDS011;11989;47.872;12.014;2023-04-03T02:19:58;10.63;;;8.38;;
23624;SDS011;11989;47.872;12.014;2023-04-03T02:22:24;10.23;;;7.95;;
23624;SDS011;11989;47.872;12.014;2023-04-03T02:24:50;12.57;;;8.32;;
23624;SDS011;11989;47.872;12.014;2023-04-03T02:27:16;10.98;;;8.45;;
23624;SDS011;11989;47.872;12.014;2023-04-03T02:29:42;10.25;;;7.70;;
23624;SDS011;11989;47.872;12.014;2023-04-03T02:32:08;11.63;;;8.27;;
23624;SDS011;11989;47.872;12.014;2023-04-03T02:34:34;10.57;;;8.05;;
23624;SDS011;11989;47.872;12.014;2023-04-03T02:37:00;12.00;;;8.70;;
23624;SDS011;11989;47.872;12.014;2023-04-03T02:39:27;11.02;;;7.97;;
23624;SDS011;11989;47.872;12.014;2023-04-03T02:41:53;10.48;;;8.18;;
23624;SDS011;11989;47.872;12.014;2023-04-03T02:44:19;11.77;;;8.13;;
23624;SDS011;11989;47.872;12.014;2023-04-03T02:46:45;12.40;;;8.75;;
23624;SDS011;11989;47.872;12.014;2023-04-03T02:49:11;10.77;;;8.07;;
23624;SDS011;11989;47.872;12.014;2023-04-03T02:51:37;12.77;;;8.68;;
23624;SDS011;11989;47.872;12.014;2023-04-03T02:54:03;12.60;;;9.02;;
23624;SDS011;11989;47.872;12.014;2023-04-03T02:56:29;13.05;;;8.80;;
23624;SDS011;11989;47.872;12.014;2023-04-03T02:58:55;10.88;;;8.23;;
23624;SDS011;11989;47.872;12.014;2023-04-03T03:01:21;11.75;;;8.25;;
23624;SDS011;11989;47.872;12.014;2023-04-03T03:03:47;9.00;;;7.78;;
23624;SDS011;11989;47.872;12.014;2023-04-03T03:06:14;11.57;;;8.85;;
23624;SDS011;11989;47.872;12.014;2023-04-03T03:08:41;10.40;;;7.80;;
23624;SDS011;11989;47.872;12.014;2023-04-03T03:11:07;11.35;;;8.55;;
23624;SDS011;11989;47.872;12.014;2023-04-03T03:13:33;11.43;;;8.25;;
23624;SDS011;11989;47.872;12.014;2023-04-03T03:15:59;12.25;;;8.57;;
23624;SDS011;11989;47.872;12.014;2023-04-03T03:18:26;9.60;;;7.30;;
23624;SDS011;11989;47.872;12.014;2023-04-03T03:20:52;10.25;;;7.80;;
23624;SDS011;11989;47.872;12.014;2023-04-03T03:23:18;11.63;;;8.40;;
23624;SDS011;11989;47.872;12.014;2023-04-03T03:25:45;11.73;;;7.72;;
23624;SDS011;11989;47.872;12.014;2023-04-03T03:28:10;12.73;;;8.50;;
23624;SDS011;11989;47.872;12.014;2023-04-03T03:30:37;10.93;;;8.57;;
23624;SDS011;11989;47.872;12.014;2023-04-03T03:33:03;11.32;;;8.45;;
23624;SDS011;11989;47.872;12.014;2023-04-03T03:35:29;11.80;;;8.50;;
23624;SDS011;11989;47.872;12.014;2023-04-03T03:37:55;10.38;;;7.68;;
23624;SDS011;11989;47.872;12.014;2023-04-03T03:40:21;11.02;;;8.88;;
23624;SDS011;11989;47.872;12.014;2023-04-03T03:42:47;13.32;;;10.18;;
23624;SDS011;11989;47.872;12.014;2023-04-03T03:45:13;14.00;;;9.80;;
23624;SDS011;11989;47.872;12.014;2023-04-03T03:47:39;11.80;;;9.07;;
23624;SDS011;11989;47.872;12.014;2023-04-03T03:50:06;11.25;;;8.27;;
23624;SDS011;11989;47.872;12.014;2023-04-03T03:52:32;12.25;;;8.68;;
23624;SDS011;11989;47.872;12.014;2023-04-03T03:54:58;12.82;;;8.70;;
23624;SDS011;11989;47.872;12.014;2023-04-03T03:57:24;10.82;;;8.35;;
23624;SDS011;11989;47.872;12.014;2023-04-03T03:59:51;9.73;;;7.65;;
23624;SDS011;11989;47.872;12.014;2023-04-03T04:02:17;10.63;;;8.45;;
23624;SDS011;11989;47.872;12.014;2023-04-03T04:04:43;10.27;;;8.05;;
23624;SDS011;11989;47.872;12.014;2023-04-03T04:07:10;9.68;;;6.78;;
23624;SDS011;11989;47.872;12.014;2023-04-03T04:09:36;9.52;;;6.93;;
23624;SDS011;11989;47.872;12.014;2023-04-03T04:12:02;12.10;;;8.15;;
23624;SDS011;11989;47.872;12.014;2023-04-03T04:14:28;13.80;;;7.45;;
23624;SDS011;11989;47.872;12.014;2023-04-03T04:16:55;10.90;;;6.63;;
23624;SDS011;11989;47.872;12.014;2023-04-03T04:19:21;10.52;;;7.35;;
23624;SDS011;11989;47.872;12.014;2023-04-03T04:21:47;10.68;;;7.88;;
23624;SDS011;11989;47.872;12.014;2023-04-03T04:24:13;12.23;;;7.13;;
23624;SDS011;11989;47.872;12.014;2023-04-03T04:26:39;8.93;;;7.00;;
23624;SDS011;11989;47.872;12.014;2023-04-03T04:29:05;9.65;;;7.43;;
23624;SDS011;11989;47.872;12.014;2023-04-03T04:31:31;10.15;;;7.65;;
23624;SDS011;11989;47.872;12.014;2023-04-03T04:33:57;9.75;;;7.13;;
23624;SDS011;11989;47.872;12.014;2023-04-03T04:36:23;9.60;;;7.15;;
23624;SDS011;11989;47.872;12.014;2023-04-03T04:38:49;10.38;;;7.55;;
23624;SDS011;11989;47.872;12.014;2023-04-03T04:41:17;11.60;;;7.68;;
23624;SDS011;11989;47.872;12.014;2023-04-03T04:43:46;8.32;;;6.82;;
23624;SDS011;11989;47.872;12.014;2023-04-03T04:46:12;9.55;;;6.90;;
23624;SDS011;11989;47.872;12.014;2023-04-03T04:48:38;11.05;;;7.00;;
23624;SDS011;11989;47.872;12.014;2023-04-03T04:51:04;9.60;;;7.72;;
23624;SDS011;11989;47.872;12.014;2023-04-03T04:53:30;9.98;;;7.03;;
23624;SDS011;11989;47.872;12.014;2023-04-03T04:55:56;8.48;;;6.88;;
23624;SDS011;11989;47.872;12.014;2023-04-03T04:58:22;10.40;;;7.80;;
23624;SDS011;11989;47.872;12.014;2023-04-03T05:00:48;9.35;;;7.32;;
23624;SDS011;11989;47.872;12.014;2023-04-03T05:03:14;10.68;;;7.25;;
23624;SDS011;11989;47.872;12.014;2023-04-03T05:05:40;10.18;;;7.40;;
23624;SDS011;11989;47.872;12.014;2023-04-03T05:08:06;8.23;;;6.45;;
23624;SDS011;11989;47.872;12.014;2023-04-03T05:10:33;8.98;;;6.57;;
23624;SDS011;11989;47.872;12.014;2023-04-03T05:12:59;10.13;;;7.25;;
23624;SDS011;11989;47.872;12.014;2023-04-03T05:15:25;9.60;;;6.25;;
23624;SDS011;11989;47.872;12.014;2023-04-03T05:17:51;10.20;;;7.10;;
23624;SDS011;11989;47.872;12.014;2023-04-03T05:20:17;9.93;;;6.68;;
23624;SDS011;11989;47.872;12.014;2023-04-03T05:22:43;11.45;;;6.97;;
23624;SDS011;11989;47.872;12.014;2023-04-03T05:25:09;8.80;;;6.47;;
23624;SDS011;11989;47.872;12.014;2023-04-03T05:27:35;8.95;;;7.10;;
23624;SDS011;11989;47.872;12.014;2023-04-03T05:30:01;9.68;;;7.07;;
23624;SDS011;11989;47.872;12.014;2023-04-03T05:32:28;8.70;;;6.32;;
23624;SDS011;11989;47.872;12.014;2023-04-03T05:34:54;8.90;;;6.65;;
23624;SDS011;11989;47.872;12.014;2023-04-03T05:37:20;9.20;;;6.43;;
23624;SDS011;11989;47.872;12.014;2023-04-03T05:39:46;8.05;;;6.38;;
23624;SDS011;11989;47.872;12.014;2023-04-03T05:42:12;9.35;;;6.35;;
23624;SDS011;11989;47.872;12.014;2023-04-03T05:44:38;8.35;;;6.43;;
23624;SDS011;11989;47.872;12.014;2023-04-03T05:47:05;9.50;;;5.90;;
23624;SDS011;11989;47.872;12.014;2023-04-03T05:49:32;9.80;;;6.30;;
23624;SDS011;11989;47.872;12.014;2023-04-03T05:51:58;8.68;;;6.00;;
23624;SDS011;11989;47.872;12.014;2023-04-03T05:54:27;9.30;;;7.20;;
23624;SDS011;11989;47.872;12.014;2023-04-03T05:56:54;9.80;;;6.85;;
23624;SDS011;11989;47.872;12.014;2023-04-03T05:59:21;9.25;;;6.88;;
23624;SDS011;11989;47.872;12.014;2023-04-03T06:01:47;11.77;;;7.10;;
23624;SDS011;11989;47.872;12.014;2023-04-03T06:04:13;9.10;;;6.72;;
23624;SDS011;11989;47.872;12.014;2023-04-03T06:06:43;12.73;;;6.03;;
23624;SDS011;11989;47.872;12.014;2023-04-03T06:09:10;8.05;;;6.70;;
23624;SDS011;11989;47.872;12.014;2023-04-03T06:11:36;9.88;;;6.35;;
